createdAt,value
2018-10-06T00:00:45.924Z,94.80
2018-10-06T00:03:15.536Z,94.70
2018-10-06T00:05:45.267Z,94.90
2018-10-06T00:08:15.087Z,95.10
2018-10-06T00:10:44.820Z,95.10
2018-10-06T00:13:14.565Z,95.10
2018-10-06T00:15:44.755Z,95.20
2018-10-06T00:18:14.855Z,95.00
2018-10-06T00:20:44.671Z,95.10
2018-10-06T00:23:14.358Z,95.40
2018-10-06T00:25:44.015Z,95.40
2018-10-06T00:28:13.686Z,95.30
2018-10-06T00:30:43.333Z,95.40
2018-10-06T00:33:13.003Z,95.60
2018-10-06T00:35:42.661Z,95.80
2018-10-06T00:38:12.327Z,95.60
2018-10-06T00:40:42.126Z,95.60
2018-10-06T00:43:11.728Z,95.80
2018-10-06T00:45:41.291Z,95.70
2018-10-06T00:48:10.926Z,95.60
2018-10-06T00:50:40.716Z,95.70
2018-10-06T00:53:10.298Z,95.60
2018-10-06T00:55:39.970Z,95.90
2018-10-06T00:58:09.772Z,95.80
2018-10-06T01:00:39.472Z,95.80
2018-10-06T01:03:09.001Z,96.40
2018-10-06T01:05:38.840Z,96.90
2018-10-06T01:08:08.538Z,97.30
2018-10-06T01:10:38.267Z,97.30
2018-10-06T01:13:08.258Z,97.20
2018-10-06T01:15:37.863Z,96.60
2018-10-06T01:18:07.942Z,96.30
2018-10-06T01:20:37.763Z,96.20
2018-10-06T01:23:07.641Z,96.10
2018-10-06T01:25:37.401Z,96.20
2018-10-06T01:28:07.235Z,96.30
2018-10-06T01:30:36.766Z,96.70
2018-10-06T01:33:06.382Z,97.50
2018-10-06T01:35:36.262Z,97.60
2018-10-06T01:38:06.026Z,97.60
2018-10-06T01:40:35.577Z,97.80
2018-10-06T01:43:05.304Z,97.80
2018-10-06T01:45:34.879Z,97.90
2018-10-06T01:48:04.520Z,97.80
2018-10-06T01:50:34.218Z,97.50
2018-10-06T01:53:03.802Z,97.00
2018-10-06T01:55:33.336Z,96.60
2018-10-06T01:58:03.050Z,96.40
2018-10-06T02:05:28.942Z,96.80
2018-10-06T02:07:58.532Z,96.60
2018-10-06T02:10:28.345Z,96.50
2018-10-06T02:12:57.852Z,96.90
2018-10-06T02:15:27.747Z,96.70
2018-10-06T02:17:57.467Z,96.60
2018-10-06T02:20:26.992Z,96.60
2018-10-06T02:22:56.814Z,96.60
2018-10-06T02:25:26.605Z,96.60
2018-10-06T02:27:56.296Z,96.40
2018-10-06T02:30:25.882Z,96.60
2018-10-06T02:32:55.573Z,97.10
2018-10-06T02:35:25.311Z,97.30
2018-10-06T02:37:55.108Z,96.90
2018-10-06T02:40:24.639Z,97.00
2018-10-06T02:42:54.186Z,96.80
2018-10-06T02:45:24.525Z,96.80
2018-10-06T02:47:55.181Z,96.90
2018-10-06T02:50:24.813Z,96.70
2018-10-06T02:52:54.481Z,96.90
2018-10-06T02:55:24.187Z,97.10
2018-10-06T02:57:53.870Z,97.10
2018-10-06T03:00:23.525Z,96.80
2018-10-06T03:02:53.158Z,96.90
2018-10-06T03:05:22.811Z,96.80
2018-10-06T03:07:52.376Z,97.40
2018-10-06T03:10:21.980Z,97.60
2018-10-06T03:12:51.716Z,96.40
2018-10-06T03:15:21.359Z,97.30
2018-10-06T03:17:50.867Z,96.80
2018-10-06T03:20:20.391Z,96.70
2018-10-06T03:22:50.106Z,96.50
2018-10-06T03:25:20.478Z,96.60
2018-10-06T03:27:50.251Z,96.90
2018-10-06T03:30:19.953Z,97.00
2018-10-06T03:32:49.628Z,97.00
2018-10-06T03:35:19.167Z,97.10
2018-10-06T03:37:48.872Z,96.60
2018-10-06T03:45:15.591Z,97.00
2018-10-06T03:47:45.232Z,97.20
2018-10-06T03:50:15.022Z,97.20
2018-10-06T03:52:44.667Z,97.00
2018-10-06T03:55:14.307Z,96.90
2018-10-06T03:57:44.192Z,96.90
2018-10-06T04:00:13.927Z,96.90
2018-10-06T04:02:43.707Z,96.70
2018-10-06T04:05:13.453Z,96.60
2018-10-06T04:07:43.113Z,97.20
2018-10-06T04:10:12.683Z,97.30
2018-10-06T04:12:42.156Z,97.30
2018-10-06T04:15:11.948Z,97.40
2018-10-06T04:17:41.601Z,97.50
2018-10-06T04:20:11.384Z,97.10
2018-10-06T04:22:41.476Z,97.00
2018-10-06T04:25:11.788Z,96.80
2018-10-06T04:27:41.533Z,96.90
2018-10-06T04:30:11.498Z,97.10
2018-10-06T04:32:41.091Z,97.00
2018-10-06T04:35:10.712Z,97.00
2018-10-06T04:37:40.259Z,97.10
2018-10-06T04:40:09.879Z,97.40
2018-10-06T04:42:39.437Z,97.40
2018-10-06T04:45:09.032Z,97.30
2018-10-06T04:47:38.809Z,97.00
2018-10-06T04:50:08.548Z,97.20
2018-10-06T04:52:38.237Z,97.00
2018-10-06T04:55:08.076Z,97.30
2018-10-06T04:57:37.624Z,97.10
2018-10-06T05:00:07.252Z,97.00
2018-10-06T05:02:37.018Z,96.70
2018-10-06T05:05:06.726Z,97.10
2018-10-06T05:07:36.258Z,97.20
2018-10-06T05:10:05.852Z,97.20
2018-10-06T05:12:35.498Z,97.10
2018-10-06T05:15:05.750Z,97.10
2018-10-06T05:17:36.641Z,97.20
2018-10-06T05:20:07.813Z,97.00
2018-10-06T05:22:37.381Z,97.30
2018-10-06T05:25:07.264Z,97.20
2018-10-06T05:27:36.934Z,96.90
2018-10-06T05:30:06.825Z,97.60
2018-10-06T05:32:36.578Z,97.40
2018-10-06T05:35:06.354Z,97.00
2018-10-06T05:37:36.085Z,96.80
2018-10-06T05:40:05.763Z,96.90
2018-10-06T05:42:35.622Z,96.70
2018-10-06T05:45:05.789Z,96.70
2018-10-06T05:47:35.834Z,96.50
2018-10-06T05:50:06.631Z,96.90
2018-10-06T05:52:36.113Z,96.70
2018-10-06T05:55:06.133Z,96.70
2018-10-06T05:57:35.932Z,96.80
2018-10-06T06:00:05.851Z,96.80
2018-10-06T06:02:35.473Z,96.80
2018-10-06T06:05:08.214Z,96.70
2018-10-06T06:07:37.832Z,96.70
2018-10-06T06:10:07.643Z,96.60
2018-10-06T06:12:37.444Z,96.60
2018-10-06T06:15:07.517Z,96.60
2018-10-06T06:17:37.616Z,96.80
2018-10-06T06:20:07.604Z,96.70
2018-10-06T06:22:37.274Z,96.70
2018-10-06T06:25:07.414Z,96.60
2018-10-06T06:27:36.977Z,96.50
2018-10-06T06:30:07.235Z,96.50
2018-10-06T06:32:36.974Z,96.40
2018-10-06T06:35:06.762Z,96.60
2018-10-06T06:37:36.766Z,96.50
2018-10-06T06:40:07.244Z,96.80
2018-10-06T06:42:36.884Z,96.70
2018-10-06T06:45:06.762Z,96.70
2018-10-06T06:47:36.773Z,96.80
2018-10-06T06:50:07.110Z,97.00
2018-10-06T06:52:36.997Z,97.20
2018-10-06T06:55:07.072Z,97.10
2018-10-06T06:57:36.992Z,97.30
2018-10-06T07:00:07.083Z,97.20
2018-10-06T07:02:36.913Z,97.10
2018-10-06T07:05:07.200Z,97.00
2018-10-06T07:07:36.914Z,97.10
2018-10-06T07:10:06.588Z,96.90
2018-10-06T07:12:36.795Z,97.00
2018-10-06T07:15:06.628Z,97.20
2018-10-06T07:17:36.453Z,97.10
2018-10-06T07:20:06.253Z,97.10
2018-10-06T07:22:37.088Z,97.00
2018-10-06T07:25:49.462Z,97.00
2018-10-06T07:28:19.296Z,96.90
2018-10-06T07:30:49.007Z,96.80
2018-10-06T07:33:18.928Z,96.70
2018-10-06T07:35:48.634Z,96.70
2018-10-06T07:38:18.272Z,97.90
2018-10-06T07:40:48.145Z,97.10
2018-10-06T07:43:18.082Z,98.50
2018-10-06T07:45:47.959Z,98.00
2018-10-06T07:48:18.995Z,97.60
2018-10-06T07:50:48.774Z,97.60
2018-10-06T07:53:18.503Z,98.20
2018-10-06T07:55:48.207Z,99.00
2018-10-06T07:58:17.976Z,98.20
2018-10-06T08:00:47.716Z,98.00
2018-10-06T08:03:17.545Z,99.40
2018-10-06T08:05:47.273Z,99.70
2018-10-06T08:08:16.943Z,98.80
2018-10-06T08:10:46.773Z,98.90
2018-10-06T08:13:16.501Z,97.30
2018-10-06T08:15:46.442Z,96.40
2018-10-06T08:18:16.230Z,96.60
2018-10-06T08:20:45.994Z,97.00
2018-10-06T08:23:15.793Z,96.60
2018-10-06T08:25:45.677Z,96.30
2018-10-06T08:28:15.468Z,96.80
2018-10-06T08:30:45.129Z,97.00
2018-10-06T08:33:15.174Z,97.40
2018-10-06T08:35:44.824Z,97.40
2018-10-06T08:38:14.540Z,96.90
2018-10-06T08:40:44.508Z,96.80
2018-10-06T08:43:14.805Z,96.60
2018-10-06T08:45:44.794Z,97.00
2018-10-06T08:48:14.863Z,96.80
2018-10-06T08:50:44.772Z,97.10
2018-10-06T08:53:14.602Z,96.70
2018-10-06T08:55:44.763Z,96.20
2018-10-06T08:58:14.661Z,96.30
2018-10-06T09:00:44.509Z,95.00
2018-10-06T09:03:14.488Z,95.10
2018-10-06T09:05:44.429Z,94.50
2018-10-06T09:08:14.197Z,95.20
2018-10-06T09:10:44.157Z,93.80
2018-10-06T09:13:14.137Z,94.10
2018-10-06T09:15:44.113Z,94.20
2018-10-06T09:18:13.836Z,93.90
2018-10-06T09:20:43.705Z,93.30
2018-10-06T09:23:13.380Z,93.80
2018-10-06T09:25:43.179Z,93.00
2018-10-06T09:28:13.121Z,92.70
2018-10-06T09:30:42.824Z,92.60
2018-10-06T09:33:12.618Z,92.70
2018-10-06T09:35:42.675Z,92.40
2018-10-06T09:38:12.410Z,92.10
2018-10-06T09:40:42.639Z,92.20
2018-10-06T09:43:12.358Z,92.30
2018-10-06T09:45:42.288Z,92.00
2018-10-06T09:48:12.248Z,91.80
2018-10-06T09:50:41.919Z,91.90
2018-10-06T09:53:11.824Z,92.00
2018-10-06T09:55:41.698Z,92.20
2018-10-06T09:58:11.428Z,92.30
2018-10-06T10:00:53.124Z,92.20
2018-10-06T10:03:27.830Z,91.50
2018-10-06T10:05:57.815Z,91.50
2018-10-06T10:08:27.916Z,91.10
2018-10-06T10:10:57.645Z,90.60
2018-10-06T10:13:27.592Z,90.60
2018-10-06T10:15:57.646Z,90.50
2018-10-06T10:18:27.648Z,90.30
2018-10-06T10:20:57.493Z,90.00
2018-10-06T10:23:27.209Z,89.40
2018-10-06T10:25:56.908Z,89.50
2018-10-06T10:28:26.662Z,89.20
2018-10-06T10:30:56.412Z,89.60
2018-10-06T10:33:27.064Z,89.40
2018-10-06T10:35:58.045Z,88.50
2018-10-06T10:38:27.868Z,88.80
2018-10-06T10:40:57.729Z,88.50
2018-10-06T10:43:27.808Z,88.10
2018-10-06T10:45:57.610Z,87.90
2018-10-06T10:48:27.264Z,87.30
2018-10-06T10:50:57.108Z,86.30
2018-10-06T10:53:27.031Z,86.40
2018-10-06T10:55:56.736Z,86.50
2018-10-06T10:58:26.408Z,86.00
2018-10-06T11:00:56.183Z,86.00
2018-10-06T11:03:25.820Z,86.40
2018-10-06T11:05:55.480Z,86.00
2018-10-06T11:08:25.264Z,85.30
2018-10-06T11:10:55.122Z,85.00
2018-10-06T11:13:25.010Z,85.00
2018-10-06T11:15:54.936Z,85.50
2018-10-06T11:18:24.783Z,85.40
2018-10-06T11:20:54.525Z,85.80
2018-10-06T11:23:24.425Z,85.60
2018-10-06T11:25:54.354Z,84.80
2018-10-06T11:28:24.884Z,84.70
2018-10-06T11:30:54.538Z,86.00
2018-10-06T11:33:24.391Z,84.70
2018-10-06T11:35:54.279Z,83.80
2018-10-06T11:38:24.006Z,82.20
2018-10-06T11:40:53.903Z,82.60
2018-10-06T11:43:23.742Z,82.20
2018-10-06T11:45:53.578Z,82.20
2018-10-06T11:48:23.418Z,81.20
2018-10-06T11:50:53.189Z,80.20
2018-10-06T11:53:22.860Z,79.50
2018-10-06T11:55:52.998Z,79.40
2018-10-06T11:58:22.803Z,78.10
2018-10-06T12:00:52.793Z,78.20
2018-10-06T12:03:22.988Z,77.80
2018-10-06T12:05:52.911Z,77.80
2018-10-06T12:08:22.699Z,77.70
2018-10-06T12:10:52.689Z,76.60
2018-10-06T12:13:22.535Z,76.60
2018-10-06T12:15:52.550Z,76.50
2018-10-06T12:18:22.364Z,77.00
2018-10-06T12:20:52.096Z,75.40
2018-10-06T12:23:22.794Z,74.40
2018-10-06T12:30:50.497Z,73.10
2018-10-06T12:33:20.654Z,73.30
2018-10-06T12:35:50.582Z,72.60
2018-10-06T12:38:20.416Z,72.10
2018-10-06T12:40:50.349Z,73.20
2018-10-06T12:43:20.128Z,73.10
2018-10-06T12:45:49.931Z,71.80
2018-10-06T12:48:20.099Z,71.50
2018-10-06T12:50:49.837Z,71.70
2018-10-06T12:53:19.685Z,71.40
2018-10-06T12:55:49.538Z,70.70
2018-10-06T12:58:19.496Z,71.10
2018-10-06T13:00:49.397Z,70.60
2018-10-06T13:03:19.496Z,70.40
2018-10-06T13:05:49.384Z,69.60
2018-10-06T13:08:19.241Z,69.70
2018-10-06T13:10:49.020Z,69.00
2018-10-06T13:13:18.939Z,69.30
2018-10-06T13:15:48.814Z,69.10
2018-10-06T13:18:19.198Z,68.30
2018-10-06T13:20:48.925Z,67.60
2018-10-06T13:23:18.694Z,68.30
2018-10-06T13:25:48.308Z,68.00
2018-10-06T13:28:18.039Z,67.90
2018-10-06T13:30:47.867Z,69.00
2018-10-06T13:33:17.669Z,68.00
2018-10-06T13:35:47.676Z,67.20
2018-10-06T13:38:17.568Z,66.80
2018-10-06T13:40:47.511Z,67.30
2018-10-06T13:43:17.563Z,66.40
2018-10-06T13:45:47.425Z,67.30
2018-10-06T13:48:17.256Z,66.40
2018-10-06T13:50:47.054Z,66.20
2018-10-06T13:53:17.014Z,65.60
2018-10-06T13:55:46.887Z,66.30
2018-10-06T13:58:17.006Z,66.00
2018-10-06T14:00:46.901Z,67.00
2018-10-06T14:03:16.856Z,66.70
2018-10-06T14:05:46.644Z,67.10
2018-10-06T14:08:16.754Z,68.70
2018-10-06T14:10:46.598Z,69.40
2018-10-06T14:13:16.474Z,68.80
2018-10-06T14:15:47.287Z,68.50
2018-10-06T14:18:17.233Z,67.60
2018-10-06T14:20:47.187Z,67.00
2018-10-06T14:23:17.045Z,66.90
2018-10-06T14:25:46.799Z,66.60
2018-10-06T14:28:16.436Z,66.90
2018-10-06T14:30:46.131Z,66.90
2018-10-06T14:33:15.865Z,66.30
2018-10-06T14:35:45.546Z,66.50
2018-10-06T14:38:15.196Z,66.90
2018-10-06T14:40:45.465Z,66.40
2018-10-06T14:43:15.312Z,65.70
2018-10-06T14:45:45.117Z,65.30
2018-10-06T14:48:15.051Z,63.70
2018-10-06T14:50:45.019Z,64.70
2018-10-06T14:53:14.761Z,64.30
2018-10-06T14:55:44.653Z,64.60
2018-10-06T14:58:14.483Z,64.30
2018-10-06T15:00:44.327Z,65.40
2018-10-06T15:03:14.400Z,64.00
2018-10-06T15:05:44.195Z,64.30
2018-10-06T15:08:14.100Z,65.40
2018-10-06T15:10:44.769Z,65.70
2018-10-06T15:13:15.656Z,65.00
2018-10-06T15:15:45.438Z,64.20
2018-10-06T15:18:15.184Z,63.30
2018-10-06T15:20:45.164Z,63.70
2018-10-06T15:23:15.721Z,64.40
2018-10-06T15:25:45.638Z,64.30
2018-10-06T15:28:15.768Z,64.90
2018-10-06T15:30:45.559Z,66.10
2018-10-06T15:33:15.501Z,67.10
2018-10-06T15:35:45.333Z,68.50
2018-10-06T15:38:21.903Z,69.90
2018-10-06T15:40:51.778Z,71.10
2018-10-06T15:43:21.538Z,71.70
2018-10-06T15:45:51.245Z,72.60
2018-10-06T15:48:21.135Z,73.40
2018-10-06T15:50:51.009Z,73.80
2018-10-06T15:53:20.609Z,74.20
2018-10-06T15:55:50.444Z,75.10
2018-10-06T15:58:20.208Z,76.60
2018-10-06T16:00:49.969Z,77.70
2018-10-06T16:03:19.837Z,78.20
2018-10-06T16:05:49.819Z,78.80
2018-10-06T16:08:19.505Z,78.90
2018-10-06T16:10:49.447Z,81.30
2018-10-06T16:13:19.300Z,82.40
2018-10-06T16:15:49.220Z,82.90
2018-10-06T16:18:19.003Z,84.80
2018-10-06T16:20:49.748Z,86.70
2018-10-06T16:23:20.038Z,88.00
2018-10-06T16:25:49.920Z,89.20
2018-10-06T16:28:22.053Z,90.70
2018-10-06T16:30:52.850Z,91.10
2018-10-06T16:33:22.869Z,91.40
2018-10-06T16:35:52.684Z,91.60
2018-10-06T16:38:22.734Z,91.70
2018-10-06T16:40:52.925Z,92.10
2018-10-06T16:43:22.684Z,92.20
2018-10-06T16:45:52.571Z,92.50
2018-10-06T16:48:22.224Z,92.90
2018-10-06T16:50:52.033Z,93.60
2018-10-06T16:53:21.980Z,94.30
2018-10-06T16:55:51.701Z,94.30
2018-10-06T16:58:22.331Z,94.50
2018-10-06T17:00:52.225Z,94.60
2018-10-06T17:03:22.187Z,95.00
2018-10-06T17:05:52.239Z,95.20
2018-10-06T17:08:22.380Z,95.10
2018-10-06T17:10:52.295Z,95.30
2018-10-06T17:13:22.759Z,95.60
2018-10-06T17:15:52.855Z,95.80
2018-10-06T17:18:22.852Z,95.80
2018-10-06T17:20:52.819Z,95.90
2018-10-06T17:23:22.940Z,95.90
2018-10-06T17:25:53.446Z,96.20
2018-10-06T17:28:24.255Z,96.50
2018-10-06T17:30:54.861Z,96.70
2018-10-06T17:33:25.186Z,96.90
2018-10-06T17:35:55.039Z,97.10
2018-10-06T17:38:25.290Z,96.80
2018-10-06T17:40:55.188Z,96.70
2018-10-06T17:43:25.624Z,96.60
2018-10-06T17:45:55.940Z,96.90
2018-10-06T17:48:26.060Z,96.90
2018-10-06T17:50:56.608Z,97.00
2018-10-06T17:53:26.753Z,97.10
2018-10-06T17:55:56.624Z,97.20
2018-10-06T17:58:26.517Z,97.20
2018-10-06T18:00:56.492Z,97.30
2018-10-06T18:03:26.765Z,97.30
2018-10-06T18:05:56.941Z,97.30
2018-10-06T18:08:26.930Z,97.30
2018-10-06T18:10:56.894Z,97.30
2018-10-06T18:13:26.971Z,97.40
2018-10-06T18:15:56.805Z,97.40
2018-10-06T18:18:26.922Z,97.40
2018-10-06T18:20:56.928Z,97.50
2018-10-06T18:23:27.067Z,97.70
2018-10-06T18:25:57.312Z,97.70
2018-10-06T18:28:27.289Z,97.70
2018-10-06T18:30:58.241Z,97.70
2018-10-06T18:33:28.752Z,97.90
2018-10-06T18:35:58.660Z,97.70
2018-10-06T18:38:28.490Z,97.90
2018-10-06T18:40:58.262Z,97.80
2018-10-06T18:43:28.310Z,97.90
2018-10-06T18:45:58.340Z,97.90
2018-10-06T18:48:28.168Z,98.00
2018-10-06T18:50:59.005Z,98.40
2018-10-06T18:53:28.989Z,98.10
2018-10-06T18:55:58.839Z,97.90
2018-10-06T18:58:29.681Z,97.40
2018-10-06T19:00:59.587Z,96.80
2018-10-06T19:03:29.556Z,96.50
2018-10-06T19:05:59.474Z,96.50
2018-10-06T19:08:29.382Z,96.60
2018-10-06T19:10:59.708Z,96.90
2018-10-06T19:13:29.942Z,96.30
2018-10-06T19:16:00.053Z,96.40
2018-10-06T19:18:29.850Z,95.90
2018-10-06T19:20:59.914Z,96.00
2018-10-06T19:23:29.808Z,95.90
2018-10-06T19:25:59.801Z,95.70
2018-10-06T19:28:29.865Z,95.70
2018-10-06T19:31:00.391Z,95.70
2018-10-06T19:33:30.689Z,95.60
2018-10-06T19:36:00.990Z,95.50
2018-10-06T19:38:31.051Z,95.10
2018-10-06T19:41:00.830Z,95.20
2018-10-06T19:43:31.102Z,95.20
2018-10-06T19:46:01.261Z,95.10
2018-10-06T19:48:31.561Z,94.80
2018-10-06T19:51:02.243Z,95.10
2018-10-06T19:53:32.176Z,95.10
2018-10-06T19:56:02.063Z,95.20
2018-10-06T19:58:31.963Z,94.90
2018-10-06T20:01:01.843Z,94.90
2018-10-06T20:03:31.946Z,95.00
2018-10-06T20:06:01.940Z,95.20
2018-10-06T20:08:32.052Z,95.30
2018-10-06T20:11:01.855Z,95.40
2018-10-06T20:13:31.671Z,95.30
2018-10-06T20:16:01.676Z,95.20
2018-10-06T20:18:31.567Z,95.70
2018-10-06T20:21:04.228Z,95.90
2018-10-06T20:23:34.285Z,96.10
2018-10-06T20:26:04.192Z,95.90
2018-10-06T20:28:34.167Z,96.10
2018-10-06T20:31:04.237Z,96.10
2018-10-06T20:33:34.180Z,96.20
2018-10-06T20:36:03.977Z,95.90
2018-10-06T20:38:33.699Z,95.80
2018-10-06T20:41:03.560Z,96.00
2018-10-06T20:43:33.355Z,96.20
2018-10-06T20:46:03.355Z,96.20
2018-10-06T20:48:33.149Z,96.60
2018-10-06T20:51:03.312Z,97.10
2018-10-06T20:53:33.683Z,97.20
2018-10-06T20:56:03.960Z,97.20
2018-10-06T20:58:33.949Z,97.10
2018-10-06T21:01:04.055Z,97.00
2018-10-06T21:03:33.906Z,97.20
2018-10-06T21:06:03.990Z,97.80
2018-10-06T21:08:33.975Z,98.30
2018-10-06T21:11:04.125Z,98.40
2018-10-06T21:13:34.087Z,98.30
2018-10-06T21:16:04.142Z,98.00
2018-10-06T21:18:34.057Z,97.90
2018-10-06T21:21:03.968Z,97.90
2018-10-06T21:23:34.038Z,97.80
2018-10-06T21:26:04.142Z,97.70
2018-10-06T21:28:34.259Z,97.60
2018-10-06T21:31:03.971Z,97.70
2018-10-06T21:33:33.896Z,97.90
2018-10-06T21:36:04.780Z,98.10
2018-10-06T21:38:34.830Z,98.00
2018-10-06T21:41:04.580Z,98.60
2018-10-06T21:43:34.345Z,98.80
2018-10-06T21:46:04.421Z,98.70
2018-10-06T21:48:34.165Z,98.60
2018-10-06T21:51:03.790Z,98.50
2018-10-06T21:53:33.754Z,98.20
2018-10-06T21:56:03.532Z,98.90
2018-10-06T21:58:33.677Z,99.00
2018-10-06T22:01:10.254Z,98.80
2018-10-06T22:03:40.820Z,99.30
2018-10-06T22:06:10.718Z,99.70
2018-10-06T22:08:41.660Z,99.50
2018-10-06T22:11:12.078Z,99.50
2018-10-06T22:13:41.869Z,99.60
2018-10-06T22:16:11.625Z,99.70
2018-10-06T22:18:41.727Z,99.90
2018-10-06T22:21:11.822Z,99.90
2018-10-06T22:23:41.926Z,99.90
2018-10-06T22:26:11.918Z,99.90
2018-10-06T22:28:42.466Z,99.90
2018-10-06T22:31:12.257Z,99.90
2018-10-06T22:33:42.205Z,99.90
2018-10-06T22:36:12.171Z,99.90
2018-10-06T22:38:42.210Z,99.90
2018-10-06T22:41:12.205Z,99.90
2018-10-06T22:43:42.372Z,99.90
2018-10-06T22:46:12.415Z,99.80
2018-10-06T22:48:42.334Z,99.70
2018-10-06T22:51:12.481Z,99.80
2018-10-06T22:53:42.471Z,99.80
2018-10-06T22:56:12.749Z,99.70
2018-10-06T22:58:42.543Z,99.90
2018-10-06T23:01:12.648Z,99.90
2018-10-06T23:03:42.726Z,99.90
2018-10-06T23:06:13.031Z,99.70
2018-10-06T23:08:43.710Z,99.80
2018-10-06T23:11:14.525Z,99.90
2018-10-06T23:13:44.481Z,99.90
2018-10-06T23:16:14.466Z,99.90
2018-10-06T23:18:44.193Z,99.90
2018-10-06T23:21:14.013Z,99.90
2018-10-06T23:23:43.695Z,99.90
2018-10-06T23:26:13.659Z,99.90
2018-10-06T23:28:43.505Z,99.90
2018-10-06T23:31:13.084Z,99.90
2018-10-06T23:33:42.916Z,99.90
2018-10-06T23:36:12.770Z,99.90
2018-10-06T23:38:42.575Z,99.90
2018-10-06T23:41:12.243Z,99.90
2018-10-06T23:43:42.245Z,99.90
2018-10-06T23:46:12.133Z,99.90
2018-10-06T23:48:41.740Z,99.90
2018-10-06T23:51:11.351Z,99.90
2018-10-06T23:53:41.165Z,99.90
2018-10-06T23:56:10.950Z,99.90
2018-10-06T23:58:40.709Z,99.90
